createdAt,value
2019-03-09T00:00:37.499Z,64.10
2019-03-09T00:01:10.711Z,64.68
2019-03-09T00:01:43.796Z,63.15
2019-03-09T00:02:15.060Z,61.85
2019-03-09T00:02:46.224Z,60.73
2019-03-09T00:03:17.433Z,59.61
2019-03-09T00:03:48.647Z,58.35
2019-03-09T00:04:20.160Z,56.95
2019-03-09T00:04:51.338Z,55.91
2019-03-09T00:05:22.546Z,55.39
2019-03-09T00:05:53.708Z,55.24
2019-03-09T00:06:24.939Z,55.34
2019-03-09T00:06:56.091Z,55.50
2019-03-09T00:07:27.292Z,55.95
2019-03-09T00:07:58.457Z,56.34
2019-03-09T00:08:29.660Z,56.77
2019-03-09T00:09:00.808Z,57.19
2019-03-09T00:09:32.371Z,57.63
2019-03-09T00:10:07.635Z,58.05
2019-03-09T00:10:38.916Z,58.44
2019-03-09T00:11:10.481Z,58.94
2019-03-09T00:11:41.683Z,59.29
2019-03-09T00:12:12.843Z,59.65
2019-03-09T00:12:44.052Z,59.99
2019-03-09T00:13:15.208Z,60.36
2019-03-09T00:13:46.423Z,60.87
2019-03-09T00:14:17.570Z,61.22
2019-03-09T00:14:48.803Z,61.61
2019-03-09T00:15:19.957Z,61.98
2019-03-09T00:15:51.208Z,62.67
2019-03-09T00:16:22.361Z,63.61
2019-03-09T00:16:53.755Z,64.08
2019-03-09T00:17:24.905Z,63.88
2019-03-09T00:17:56.231Z,63.33
2019-03-09T00:18:27.399Z,62.46
2019-03-09T00:18:58.628Z,61.60
2019-03-09T00:19:29.790Z,60.59
2019-03-09T00:20:01.004Z,59.49
2019-03-09T00:20:32.204Z,58.11
2019-03-09T00:21:03.407Z,56.76
2019-03-09T00:21:34.583Z,55.82
2019-03-09T00:22:05.781Z,55.30
2019-03-09T00:22:36.963Z,55.19
2019-03-09T00:23:16.777Z,55.32
2019-03-09T00:23:49.916Z,55.34
2019-03-09T00:24:39.357Z,55.83
2019-03-09T00:25:12.617Z,55.99
2019-03-09T00:25:48.651Z,56.77
2019-03-09T00:26:27.675Z,57.21
2019-03-09T00:27:00.782Z,57.71
2019-03-09T00:27:34.214Z,58.28
2019-03-09T00:28:13.071Z,58.75
2019-03-09T00:29:02.324Z,58.97
2019-03-09T00:29:38.418Z,59.18
2019-03-09T00:30:14.336Z,59.96
2019-03-09T00:30:47.456Z,60.38
2019-03-09T00:31:20.509Z,60.90
2019-03-09T00:31:54.600Z,61.27
2019-03-09T00:32:25.824Z,61.69
2019-03-09T00:32:57.050Z,62.13
2019-03-09T00:33:28.232Z,63.11
2019-03-09T00:33:59.490Z,63.78
2019-03-09T00:34:30.728Z,63.95
2019-03-09T00:35:02.235Z,63.41
2019-03-09T00:35:33.484Z,62.80
2019-03-09T00:36:04.942Z,61.87
2019-03-09T00:36:36.178Z,60.85
2019-03-09T00:37:07.415Z,59.86
2019-03-09T00:37:38.643Z,58.98
2019-03-09T00:38:09.880Z,57.62
2019-03-09T00:38:41.095Z,55.95
2019-03-09T00:39:12.270Z,55.14
2019-03-09T00:39:43.471Z,54.84
2019-03-09T00:40:14.621Z,54.73
2019-03-09T00:40:45.847Z,54.98
2019-03-09T00:41:16.999Z,55.23
2019-03-09T00:41:48.403Z,55.54
2019-03-09T00:42:19.564Z,55.99
2019-03-09T00:42:50.828Z,56.46
2019-03-09T00:43:22.078Z,56.90
2019-03-09T00:43:53.296Z,57.36
2019-03-09T00:44:24.528Z,57.83
2019-03-09T00:44:55.782Z,58.28
2019-03-09T00:45:27.031Z,58.66
2019-03-09T00:45:58.263Z,59.10
2019-03-09T00:46:29.492Z,59.64
2019-03-09T00:47:00.741Z,60.10
2019-03-09T00:47:32.017Z,60.42
2019-03-09T00:48:03.276Z,60.87
2019-03-09T00:48:34.887Z,61.23
2019-03-09T00:49:06.099Z,61.77
2019-03-09T00:49:37.283Z,62.63
2019-03-09T00:50:09.384Z,63.41
2019-03-09T00:50:40.572Z,63.81
2019-03-09T00:51:11.753Z,63.49
2019-03-09T00:51:42.937Z,62.93
2019-03-09T00:52:14.115Z,62.01
2019-03-09T00:52:45.310Z,61.07
2019-03-09T00:53:16.487Z,60.15
2019-03-09T00:53:47.669Z,59.26
2019-03-09T00:54:19.046Z,57.80
2019-03-09T00:54:50.229Z,56.39
2019-03-09T00:55:22.638Z,55.43
2019-03-09T00:55:53.857Z,55.05
2019-03-09T00:56:25.114Z,54.96
2019-03-09T00:56:56.350Z,55.19
2019-03-09T00:57:27.582Z,55.40
2019-03-09T00:57:59.822Z,55.70
2019-03-09T00:58:31.024Z,56.14
2019-03-09T00:59:02.202Z,56.66
2019-03-09T00:59:33.420Z,57.08
2019-03-09T01:00:12.920Z,57.57
2019-03-09T01:00:44.128Z,57.81
2019-03-09T01:01:15.398Z,58.46
2019-03-09T01:01:46.620Z,58.92
2019-03-09T01:02:17.809Z,59.36
2019-03-09T01:02:51.033Z,59.81
2019-03-09T01:03:22.126Z,60.20
2019-03-09T01:03:53.358Z,60.60
2019-03-09T01:04:24.528Z,60.98
2019-03-09T01:04:55.753Z,61.36
2019-03-09T01:05:26.935Z,61.69
2019-03-09T01:05:59.189Z,62.55
2019-03-09T01:06:30.343Z,63.36
2019-03-09T01:07:01.828Z,63.73
2019-03-09T01:07:32.999Z,63.59
2019-03-09T01:08:04.196Z,63.00
2019-03-09T01:08:35.403Z,62.10
2019-03-09T01:09:07.222Z,61.14
2019-03-09T01:09:38.650Z,60.14
2019-03-09T01:10:14.745Z,58.98
2019-03-09T01:10:45.989Z,57.78
2019-03-09T01:11:17.220Z,56.24
2019-03-09T01:11:48.471Z,55.41
2019-03-09T01:12:19.729Z,55.13
2019-03-09T01:12:50.967Z,55.07
2019-03-09T01:13:22.201Z,55.10
2019-03-09T01:13:53.439Z,55.39
2019-03-09T01:14:24.603Z,55.82
2019-03-09T01:14:55.820Z,56.14
2019-03-09T01:15:26.967Z,56.55
2019-03-09T01:15:58.182Z,57.04
2019-03-09T01:16:29.327Z,57.46
2019-03-09T01:17:00.665Z,57.91
2019-03-09T01:17:31.950Z,58.25
2019-03-09T01:18:03.290Z,58.68
2019-03-09T01:18:34.446Z,59.15
2019-03-09T01:19:05.764Z,59.46
2019-03-09T01:19:36.936Z,59.82
2019-03-09T01:20:11.630Z,60.24
2019-03-09T01:20:42.797Z,60.46
2019-03-09T01:21:13.997Z,60.90
2019-03-09T01:21:45.155Z,61.28
2019-03-09T01:22:16.356Z,61.59
2019-03-09T01:22:47.509Z,62.20
2019-03-09T01:23:18.730Z,63.20
2019-03-09T01:23:50.898Z,63.76
2019-03-09T01:24:22.177Z,63.70
2019-03-09T01:24:53.409Z,63.28
2019-03-09T01:25:25.630Z,62.53
2019-03-09T01:25:56.868Z,61.51
2019-03-09T01:26:28.093Z,60.51
2019-03-09T01:26:59.326Z,59.50
2019-03-09T01:27:30.600Z,58.09
2019-03-09T01:28:01.978Z,56.69
2019-03-09T01:28:33.213Z,55.85
2019-03-09T01:29:04.420Z,55.38
2019-03-09T01:29:35.574Z,55.25
2019-03-09T01:30:14.196Z,55.33
2019-03-09T01:30:45.384Z,55.41
2019-03-09T01:31:16.609Z,55.86
2019-03-09T01:31:47.767Z,56.26
2019-03-09T01:32:19.018Z,56.59
2019-03-09T01:32:50.186Z,57.10
2019-03-09T01:33:21.418Z,57.60
2019-03-09T01:33:52.605Z,58.01
2019-03-09T01:34:23.833Z,58.34
2019-03-09T01:34:55.067Z,58.74
2019-03-09T01:35:26.303Z,59.21
2019-03-09T01:35:57.525Z,59.56
2019-03-09T01:36:28.755Z,59.90
2019-03-09T01:36:59.997Z,60.32
2019-03-09T01:37:31.271Z,60.64
2019-03-09T01:38:02.589Z,61.00
2019-03-09T01:38:33.827Z,61.45
2019-03-09T01:39:05.327Z,61.83
2019-03-09T01:39:37.105Z,62.18
2019-03-09T01:40:11.413Z,62.99
2019-03-09T01:40:42.569Z,64.05
2019-03-09T01:41:13.780Z,64.48
2019-03-09T01:41:44.976Z,64.29
2019-03-09T01:42:16.196Z,63.75
2019-03-09T01:42:48.355Z,62.80
2019-03-09T01:43:19.545Z,61.61
2019-03-09T01:43:50.697Z,60.60
2019-03-09T01:44:21.901Z,59.60
2019-03-09T01:44:53.081Z,58.20
2019-03-09T01:45:24.323Z,56.85
2019-03-09T01:45:55.454Z,56.10
2019-03-09T01:46:26.659Z,55.63
2019-03-09T01:46:57.818Z,55.45
2019-03-09T01:47:29.023Z,55.59
2019-03-09T01:48:00.163Z,55.89
2019-03-09T01:48:31.364Z,56.15
2019-03-09T01:49:02.584Z,56.61
2019-03-09T01:49:33.888Z,57.09
2019-03-09T01:50:07.460Z,57.56
2019-03-09T01:50:38.738Z,57.93
2019-03-09T01:51:10.037Z,58.46
2019-03-09T01:51:41.256Z,58.97
2019-03-09T01:52:12.504Z,59.37
2019-03-09T01:52:43.742Z,59.91
2019-03-09T01:53:14.966Z,60.39
2019-03-09T01:53:46.244Z,60.81
2019-03-09T01:54:17.458Z,61.29
2019-03-09T01:54:48.606Z,61.68
2019-03-09T01:55:19.815Z,62.03
2019-03-09T01:55:51.900Z,62.50
2019-03-09T01:56:23.087Z,63.16
2019-03-09T01:56:54.273Z,64.18
2019-03-09T01:57:25.455Z,64.70
2019-03-09T01:57:56.638Z,64.62
2019-03-09T01:58:27.867Z,64.10
2019-03-09T01:58:59.077Z,63.25
2019-03-09T01:59:30.253Z,62.34
2019-03-09T02:00:04.431Z,61.35
2019-03-09T02:00:37.501Z,60.62
2019-03-09T02:01:08.681Z,59.23
2019-03-09T02:01:39.869Z,57.98
2019-03-09T02:02:11.064Z,56.73
2019-03-09T02:02:42.243Z,55.89
2019-03-09T02:03:13.421Z,55.48
2019-03-09T02:03:44.593Z,55.48
2019-03-09T02:04:15.763Z,55.61
2019-03-09T02:04:47.901Z,55.90
2019-03-09T02:05:19.113Z,56.37
2019-03-09T02:05:50.268Z,56.77
2019-03-09T02:06:21.469Z,57.29
2019-03-09T02:06:52.636Z,57.72
2019-03-09T02:07:23.908Z,58.17
2019-03-09T02:07:55.106Z,58.66
2019-03-09T02:08:26.323Z,59.11
2019-03-09T02:08:57.485Z,59.51
2019-03-09T02:09:28.707Z,60.01
2019-03-09T02:09:59.866Z,60.54
2019-03-09T02:10:31.174Z,60.99
2019-03-09T02:11:02.329Z,61.47
2019-03-09T02:11:33.541Z,61.97
2019-03-09T02:12:04.926Z,62.43
2019-03-09T02:12:36.135Z,62.95
2019-03-09T02:13:07.290Z,63.97
2019-03-09T02:13:38.502Z,64.52
2019-03-09T02:14:09.661Z,64.52
2019-03-09T02:14:40.851Z,63.99
2019-03-09T02:15:14.311Z,63.20
2019-03-09T02:15:45.516Z,62.35
2019-03-09T02:16:16.662Z,61.12
2019-03-09T02:16:47.860Z,60.19
2019-03-09T02:17:19.028Z,59.13
2019-03-09T02:17:50.294Z,57.85
2019-03-09T02:18:21.526Z,56.61
2019-03-09T02:18:52.734Z,55.85
2019-03-09T02:19:23.918Z,55.50
2019-03-09T02:19:55.152Z,55.57
2019-03-09T02:20:26.412Z,55.83
2019-03-09T02:20:57.646Z,56.22
2019-03-09T02:21:28.907Z,56.63
2019-03-09T02:22:52.890Z,58.04
2019-03-09T02:23:24.259Z,58.60
2019-03-09T02:23:55.486Z,59.06
2019-03-09T02:24:26.727Z,59.51
2019-03-09T02:24:57.874Z,60.00
2019-03-09T02:25:29.065Z,60.51
2019-03-09T02:26:00.208Z,60.98
2019-03-09T02:26:31.410Z,61.49
2019-03-09T02:27:02.581Z,61.92
2019-03-09T02:27:33.804Z,62.36
2019-03-09T02:28:04.963Z,62.98
2019-03-09T02:28:36.180Z,64.02
2019-03-09T02:29:07.381Z,64.59
2019-03-09T02:29:38.583Z,64.67
2019-03-09T02:30:17.062Z,64.22
2019-03-09T02:30:48.271Z,63.77
2019-03-09T02:31:19.465Z,62.54
2019-03-09T02:31:50.679Z,61.55
2019-03-09T02:32:21.835Z,60.43
2019-03-09T02:32:53.061Z,59.50
2019-03-09T02:33:24.197Z,58.30
2019-03-09T02:33:55.437Z,56.99
2019-03-09T02:34:26.596Z,56.20
2019-03-09T02:34:57.800Z,55.81
2019-03-09T02:35:28.977Z,55.79
2019-03-09T02:36:00.183Z,55.99
2019-03-09T02:36:31.349Z,56.34
2019-03-09T02:37:02.552Z,56.77
2019-03-09T02:37:34.931Z,57.27
2019-03-09T02:38:10.639Z,57.88
2019-03-09T02:38:46.699Z,58.20
2019-03-09T02:39:19.802Z,58.70
2019-03-09T02:39:55.540Z,59.38
2019-03-09T02:40:28.050Z,59.72
2019-03-09T02:40:59.277Z,60.43
2019-03-09T02:41:31.884Z,60.91
2019-03-09T02:42:03.115Z,61.36
2019-03-09T02:42:34.350Z,61.82
2019-03-09T02:43:05.598Z,62.34
2019-03-09T02:43:36.810Z,63.10
2019-03-09T02:44:08.105Z,64.12
2019-03-09T02:44:39.368Z,64.65
2019-03-09T02:45:17.924Z,64.79
2019-03-09T02:45:50.124Z,64.80
2019-03-09T02:46:21.329Z,63.63
2019-03-09T02:46:52.503Z,62.51
2019-03-09T02:47:23.710Z,61.50
2019-03-09T02:47:54.872Z,60.50
2019-03-09T02:48:26.058Z,59.53
2019-03-09T02:48:57.205Z,58.38
2019-03-09T02:49:28.400Z,57.12
2019-03-09T02:49:59.654Z,56.35
2019-03-09T02:50:30.899Z,55.99
2019-03-09T02:51:02.348Z,55.97
2019-03-09T02:51:33.534Z,56.08
2019-03-09T02:52:04.926Z,56.44
2019-03-09T02:52:36.104Z,56.86
2019-03-09T02:53:07.302Z,57.25
2019-03-09T02:53:38.457Z,57.72
2019-03-09T02:54:09.625Z,58.26
2019-03-09T02:54:40.827Z,58.72
2019-03-09T02:55:12.613Z,59.22
2019-03-09T02:55:43.757Z,59.74
2019-03-09T02:56:14.988Z,60.30
2019-03-09T02:56:46.222Z,60.79
2019-03-09T02:57:17.455Z,61.22
2019-03-09T02:57:48.687Z,61.61
2019-03-09T02:58:19.925Z,62.13
2019-03-09T02:58:51.160Z,62.72
2019-03-09T02:59:22.433Z,63.52
2019-03-09T02:59:53.684Z,64.48
2019-03-09T03:00:26.805Z,64.97
2019-03-09T03:00:59.879Z,64.91
2019-03-09T03:01:35.871Z,64.43
2019-03-09T03:02:11.667Z,63.71
2019-03-09T03:02:44.788Z,62.62
2019-03-09T03:03:16.010Z,61.42
2019-03-09T03:03:47.217Z,60.32
2019-03-09T03:04:18.385Z,59.39
2019-03-09T03:04:49.594Z,58.03
2019-03-09T03:05:20.818Z,56.81
2019-03-09T03:05:52.126Z,56.12
2019-03-09T03:06:23.352Z,55.77
2019-03-09T03:06:54.588Z,55.81
2019-03-09T03:07:25.830Z,56.01
2019-03-09T03:07:57.050Z,56.31
2019-03-09T03:08:28.307Z,56.76
2019-03-09T03:08:59.562Z,57.15
2019-03-09T03:09:32.069Z,57.61
2019-03-09T03:10:06.261Z,58.14
2019-03-09T03:10:37.516Z,58.57
2019-03-09T03:11:08.677Z,59.09
2019-03-09T03:11:39.874Z,59.66
2019-03-09T03:12:11.054Z,60.19
2019-03-09T03:12:42.349Z,60.65
2019-03-09T03:13:13.495Z,61.14
2019-03-09T03:13:44.701Z,61.49
2019-03-09T03:14:15.860Z,61.91
2019-03-09T03:14:47.144Z,62.30
2019-03-09T03:15:34.971Z,62.76
2019-03-09T03:16:06.220Z,64.12
2019-03-09T03:16:38.548Z,64.41
2019-03-09T03:17:09.776Z,64.15
2019-03-09T03:17:41.009Z,63.44
2019-03-09T03:18:13.289Z,62.74
2019-03-09T03:18:44.585Z,61.68
2019-03-09T03:19:15.824Z,60.75
2019-03-09T03:19:47.009Z,59.81
2019-03-09T03:20:18.233Z,58.86
2019-03-09T03:20:49.406Z,57.52
2019-03-09T03:21:20.591Z,56.47
2019-03-09T03:21:51.855Z,55.78
2019-03-09T03:22:23.117Z,55.50
2019-03-09T03:22:54.312Z,55.52
2019-03-09T03:23:25.522Z,55.69
2019-03-09T03:23:56.783Z,56.06
2019-03-09T03:24:27.964Z,56.48
2019-03-09T03:24:59.142Z,56.98
2019-03-09T03:25:30.310Z,57.42
2019-03-09T03:26:01.834Z,57.90
2019-03-09T03:26:33.080Z,58.42
2019-03-09T03:27:04.270Z,58.98
2019-03-09T03:27:35.532Z,59.39
2019-03-09T03:28:06.707Z,59.92
2019-03-09T03:28:37.883Z,60.37
2019-03-09T03:29:09.064Z,60.75
2019-03-09T03:29:40.249Z,61.32
2019-03-09T03:30:11.481Z,61.71
2019-03-09T03:30:42.762Z,62.19
2019-03-09T03:31:13.936Z,62.63
2019-03-09T03:31:45.126Z,63.49
2019-03-09T03:32:16.402Z,64.36
2019-03-09T03:32:47.591Z,64.88
2019-03-09T03:33:18.781Z,64.83
2019-03-09T03:33:49.973Z,64.23
2019-03-09T03:34:21.287Z,63.55
2019-03-09T03:34:52.543Z,62.63
2019-03-09T03:35:23.729Z,61.57
2019-03-09T03:35:54.954Z,60.74
2019-03-09T03:36:27.127Z,59.86
2019-03-09T03:36:58.327Z,58.87
2019-03-09T03:37:29.460Z,57.55
2019-03-09T03:38:00.686Z,56.55
2019-03-09T03:38:31.838Z,55.97
2019-03-09T03:39:04.958Z,55.75
2019-03-09T03:39:36.499Z,55.82
2019-03-09T03:40:08.009Z,56.07
2019-03-09T03:40:39.251Z,56.45
2019-03-09T03:41:10.478Z,56.88
2019-03-09T03:41:41.628Z,57.42
2019-03-09T03:42:12.878Z,57.86
2019-03-09T03:42:44.044Z,58.43
2019-03-09T03:43:16.302Z,58.96
2019-03-09T03:43:47.628Z,59.38
2019-03-09T03:44:18.819Z,60.06
2019-03-09T03:44:49.974Z,60.48
2019-03-09T03:45:21.190Z,60.99
2019-03-09T03:45:52.392Z,61.51
2019-03-09T03:46:23.620Z,62.10
2019-03-09T03:46:54.796Z,62.59
2019-03-09T03:47:25.998Z,63.35
2019-03-09T03:47:57.157Z,64.38
2019-03-09T03:48:28.359Z,64.92
2019-03-09T03:48:59.619Z,64.83
2019-03-09T03:49:30.817Z,64.43
2019-03-09T03:50:03.607Z,63.63
2019-03-09T03:50:34.980Z,62.79
2019-03-09T03:51:06.233Z,61.63
2019-03-09T03:51:37.425Z,60.78
2019-03-09T03:52:08.616Z,59.99
2019-03-09T03:52:39.897Z,59.26
2019-03-09T03:53:11.083Z,58.03
2019-03-09T03:53:42.304Z,56.96
2019-03-09T03:54:13.568Z,56.32
2019-03-09T03:54:44.761Z,56.19
2019-03-09T03:55:15.951Z,56.27
2019-03-09T03:55:47.123Z,56.50
2019-03-09T03:56:18.301Z,56.93
2019-03-09T03:56:49.589Z,57.46
2019-03-09T03:57:20.826Z,57.95
2019-03-09T03:57:52.061Z,58.45
2019-03-09T03:58:23.231Z,58.99
2019-03-09T03:58:54.408Z,59.51
2019-03-09T03:59:25.602Z,60.10
2019-03-09T03:59:56.786Z,60.69
2019-03-09T04:00:27.997Z,61.13
2019-03-09T04:00:59.166Z,61.72
2019-03-09T04:01:30.348Z,62.22
2019-03-09T04:02:01.536Z,62.66
2019-03-09T04:02:32.713Z,63.51
2019-03-09T04:03:03.920Z,64.49
2019-03-09T04:03:35.350Z,64.99
2019-03-09T04:04:06.683Z,65.04
2019-03-09T04:04:37.870Z,64.41
2019-03-09T04:05:09.056Z,63.76
2019-03-09T04:05:40.331Z,62.69
2019-03-09T04:06:11.514Z,61.95
2019-03-09T04:06:42.698Z,60.88
2019-03-09T04:07:13.881Z,60.04
2019-03-09T04:07:45.147Z,59.23
2019-03-09T04:08:16.368Z,58.05
2019-03-09T04:08:47.538Z,56.92
2019-03-09T04:09:18.738Z,56.22
2019-03-09T04:09:49.931Z,56.11
2019-03-09T04:10:21.200Z,56.17
2019-03-09T04:10:52.380Z,56.44
2019-03-09T04:11:23.591Z,56.72
2019-03-09T04:11:55.752Z,57.19
2019-03-09T04:12:26.958Z,57.77
2019-03-09T04:12:58.126Z,58.36
2019-03-09T04:13:29.341Z,58.85
2019-03-09T04:14:00.493Z,59.42
2019-03-09T04:14:32.008Z,59.96
2019-03-09T04:15:04.991Z,60.54
2019-03-09T04:15:36.180Z,61.01
2019-03-09T04:16:07.354Z,61.64
2019-03-09T04:16:38.552Z,62.15
2019-03-09T04:17:09.719Z,62.69
2019-03-09T04:17:40.927Z,63.51
2019-03-09T04:18:12.165Z,64.52
2019-03-09T04:18:43.367Z,65.04
2019-03-09T04:19:14.546Z,64.96
2019-03-09T04:19:45.742Z,64.51
2019-03-09T04:20:16.901Z,63.71
2019-03-09T04:20:49.172Z,62.86
2019-03-09T04:21:20.337Z,61.80
2019-03-09T04:21:51.540Z,60.89
2019-03-09T04:22:22.707Z,60.04
2019-03-09T04:22:53.902Z,59.21
2019-03-09T04:23:25.115Z,57.98
2019-03-09T04:23:57.369Z,56.95
2019-03-09T04:24:28.607Z,56.26
2019-03-09T04:24:59.894Z,56.11
2019-03-09T04:25:31.182Z,56.26
2019-03-09T04:26:02.779Z,56.50
2019-03-09T04:26:33.998Z,56.98
2019-03-09T04:27:05.162Z,57.45
2019-03-09T04:27:36.416Z,57.94
2019-03-09T04:28:07.581Z,58.49
2019-03-09T04:28:38.796Z,59.08
2019-03-09T04:29:09.999Z,59.59
2019-03-09T04:29:41.189Z,60.24
2019-03-09T04:30:12.474Z,60.76
2019-03-09T04:30:43.663Z,61.25
2019-03-09T04:31:14.812Z,61.77
2019-03-09T04:31:46.029Z,62.27
2019-03-09T04:32:17.302Z,62.94
2019-03-09T04:32:48.553Z,63.97
2019-03-09T04:33:19.717Z,64.59
2019-03-09T04:33:50.917Z,64.68
2019-03-09T04:34:22.062Z,64.30
2019-03-09T04:34:53.265Z,63.66
2019-03-09T04:35:24.422Z,62.85
2019-03-09T04:35:55.623Z,61.92
2019-03-09T04:36:26.793Z,60.88
2019-03-09T04:36:59.518Z,60.05
2019-03-09T04:37:30.678Z,59.24
2019-03-09T04:38:01.912Z,58.12
2019-03-09T04:38:33.073Z,56.95
2019-03-09T04:39:04.769Z,56.33
2019-03-09T04:39:36.358Z,56.19
2019-03-09T04:40:10.307Z,56.26
2019-03-09T04:40:41.465Z,56.51
2019-03-09T04:41:12.677Z,56.96
2019-03-09T04:41:47.729Z,57.38
2019-03-09T04:42:18.979Z,57.88
2019-03-09T04:42:50.223Z,58.52
2019-03-09T04:43:21.455Z,59.13
2019-03-09T04:43:52.683Z,59.64
2019-03-09T04:44:23.924Z,60.27
2019-03-09T04:44:55.196Z,60.76
2019-03-09T04:45:26.460Z,61.33
2019-03-09T04:45:57.695Z,61.92
2019-03-09T04:46:28.963Z,62.43
2019-03-09T04:47:00.189Z,63.16
2019-03-09T04:47:31.357Z,64.21
2019-03-09T04:48:02.591Z,64.80
2019-03-09T04:48:33.745Z,64.87
2019-03-09T04:49:04.939Z,64.53
2019-03-09T04:49:36.109Z,63.80
2019-03-09T04:50:10.018Z,62.96
2019-03-09T04:50:41.162Z,62.10
2019-03-09T04:51:12.418Z,61.12
2019-03-09T04:51:43.574Z,60.16
2019-03-09T04:52:14.804Z,59.38
2019-03-09T04:52:46.061Z,58.28
2019-03-09T04:53:17.346Z,57.18
2019-03-09T04:53:48.516Z,56.56
2019-03-09T04:54:19.718Z,56.41
2019-03-09T04:54:50.888Z,56.43
2019-03-09T04:55:22.110Z,56.73
2019-03-09T04:55:53.269Z,57.18
2019-03-09T04:56:25.458Z,57.57
2019-03-09T04:56:56.635Z,58.07
2019-03-09T04:57:27.924Z,58.72
2019-03-09T04:57:59.164Z,59.30
2019-03-09T04:58:30.410Z,59.73
2019-03-09T04:59:01.950Z,60.40
2019-03-09T04:59:34.181Z,60.96
2019-03-09T05:00:10.519Z,61.48
2019-03-09T05:00:41.741Z,61.87
2019-03-09T05:01:12.996Z,62.59
2019-03-09T05:01:44.230Z,63.50
2019-03-09T05:02:15.419Z,64.50
2019-03-09T05:02:46.596Z,65.06
2019-03-09T05:03:18.083Z,64.95
2019-03-09T05:04:18.798Z,64.58
2019-03-09T05:04:50.413Z,64.95
2019-03-09T05:05:21.561Z,62.73
2019-03-09T05:05:52.775Z,61.70
2019-03-09T05:06:23.941Z,60.80
2019-03-09T05:06:55.185Z,59.81
2019-03-09T05:07:28.269Z,59.01
2019-03-09T05:08:04.997Z,57.87
2019-03-09T05:08:41.943Z,56.91
2019-03-09T05:09:44.161Z,56.47
2019-03-09T05:10:26.832Z,56.32
2019-03-09T05:11:03.079Z,56.94
2019-03-09T05:11:34.319Z,57.63
2019-03-09T05:12:05.531Z,58.44
2019-03-09T05:12:36.698Z,58.90
2019-03-09T05:13:16.093Z,59.41
2019-03-09T05:13:47.549Z,59.82
2019-03-09T05:14:18.761Z,60.68
2019-03-09T05:14:49.933Z,61.25
2019-03-09T05:15:21.144Z,61.85
2019-03-09T05:15:52.301Z,62.36
2019-03-09T05:16:23.546Z,63.05
2019-03-09T05:16:54.694Z,64.13
2019-03-09T05:17:25.899Z,64.78
2019-03-09T05:17:57.098Z,64.85
2019-03-09T05:18:28.302Z,64.42
2019-03-09T05:18:59.516Z,63.70
2019-03-09T05:19:30.777Z,62.78
2019-03-09T05:20:02.542Z,61.87
2019-03-09T05:20:33.748Z,61.01
2019-03-09T05:21:04.904Z,60.12
2019-03-09T05:21:36.109Z,59.35
2019-03-09T05:22:07.312Z,58.28
2019-03-09T05:22:38.568Z,57.24
2019-03-09T05:23:09.828Z,56.64
2019-03-09T05:23:41.044Z,56.47
2019-03-09T05:24:12.294Z,56.49
2019-03-09T05:24:43.525Z,56.86
2019-03-09T05:25:14.768Z,57.29
2019-03-09T05:25:46.007Z,57.71
2019-03-09T05:26:17.244Z,58.28
2019-03-09T05:26:48.477Z,58.82
2019-03-09T05:27:19.700Z,59.26
2019-03-09T05:27:50.860Z,59.82
2019-03-09T05:28:23.096Z,60.46
2019-03-09T05:28:54.259Z,61.09
2019-03-09T05:29:25.479Z,61.65
2019-03-09T05:29:56.641Z,62.22
2019-03-09T05:30:35.183Z,62.80
2019-03-09T05:31:06.348Z,63.65
2019-03-09T05:31:37.559Z,64.65
2019-03-09T05:32:08.711Z,65.04
2019-03-09T05:32:39.943Z,64.97
2019-03-09T05:33:11.083Z,64.45
2019-03-09T05:33:42.309Z,63.73
2019-03-09T05:34:13.463Z,62.80
2019-03-09T05:34:44.677Z,62.02
2019-03-09T05:35:15.851Z,61.08
2019-03-09T05:35:47.068Z,60.20
2019-03-09T05:36:18.227Z,59.45
2019-03-09T05:36:49.451Z,58.50
2019-03-09T05:37:20.609Z,57.47
2019-03-09T05:37:51.841Z,56.84
2019-03-09T05:38:22.999Z,56.65
2019-03-09T05:38:54.214Z,56.81
2019-03-09T05:39:25.381Z,57.05
2019-03-09T05:39:57.360Z,57.49
2019-03-09T05:40:28.523Z,58.00
2019-03-09T05:40:59.724Z,58.60
2019-03-09T05:41:30.872Z,59.06
2019-03-09T05:42:02.177Z,59.65
2019-03-09T05:42:33.332Z,60.17
2019-03-09T05:43:04.555Z,60.75
2019-03-09T05:43:35.714Z,61.30
2019-03-09T05:44:06.927Z,61.79
2019-03-09T05:44:38.088Z,62.27
2019-03-09T05:45:09.293Z,63.14
2019-03-09T05:45:40.446Z,64.12
2019-03-09T05:46:11.667Z,64.63
2019-03-09T05:46:42.840Z,64.63
2019-03-09T05:47:14.128Z,64.32
2019-03-09T05:47:45.284Z,63.75
2019-03-09T05:48:16.504Z,63.02
2019-03-09T05:48:47.668Z,62.21
2019-03-09T05:49:18.866Z,61.36
2019-03-09T05:49:50.040Z,60.50
2019-03-09T05:50:21.265Z,59.75
2019-03-09T05:50:52.424Z,58.98
2019-03-09T05:51:23.624Z,57.95
2019-03-09T05:52:20.363Z,57.07
2019-03-09T05:53:12.887Z,56.63
2019-03-09T05:53:44.060Z,56.73
2019-03-09T05:54:15.241Z,57.39
2019-03-09T05:54:46.439Z,57.92
2019-03-09T05:55:17.652Z,58.39
2019-03-09T05:55:48.839Z,58.87
2019-03-09T05:56:20.129Z,59.35
2019-03-09T05:56:52.197Z,59.92
2019-03-09T05:57:23.404Z,60.53
2019-03-09T05:57:54.611Z,61.08
2019-03-09T05:58:25.804Z,61.74
2019-03-09T05:58:56.961Z,62.39
2019-03-09T05:59:28.194Z,63.22
2019-03-09T05:59:59.416Z,64.29
2019-03-09T06:00:30.831Z,64.89
2019-03-09T06:01:01.989Z,64.87
2019-03-09T06:01:33.200Z,64.53
2019-03-09T06:02:04.367Z,63.92
2019-03-09T06:02:35.573Z,63.07
2019-03-09T06:03:06.738Z,62.34
2019-03-09T06:03:37.940Z,61.52
2019-03-09T06:04:09.111Z,60.75
2019-03-09T06:04:40.342Z,59.97
2019-03-09T06:05:39.926Z,59.32
2019-03-09T06:06:11.258Z,58.39
2019-03-09T06:06:42.439Z,57.47
2019-03-09T06:07:13.645Z,57.26
2019-03-09T06:07:44.814Z,57.35
2019-03-09T06:08:16.018Z,57.65
2019-03-09T06:08:47.222Z,58.09
2019-03-09T06:09:18.642Z,58.60
2019-03-09T06:09:49.844Z,59.22
2019-03-09T06:10:21.064Z,59.77
2019-03-09T06:10:52.240Z,60.32
2019-03-09T06:11:23.421Z,60.94
2019-03-09T06:11:54.612Z,61.63
2019-03-09T06:12:25.804Z,62.31
2019-03-09T06:12:57.278Z,63.08
2019-03-09T06:13:28.462Z,64.16
2019-03-09T06:13:59.647Z,64.81
2019-03-09T06:14:30.844Z,64.92
2019-03-09T06:15:03.820Z,64.63
2019-03-09T06:15:35.169Z,64.10
2019-03-09T06:16:06.416Z,63.36
2019-03-09T06:16:37.602Z,62.59
2019-03-09T06:17:08.803Z,61.83
2019-03-09T06:17:39.987Z,61.08
2019-03-09T06:18:11.182Z,60.35
2019-03-09T06:18:42.369Z,59.65
2019-03-09T06:19:13.567Z,59.20
2019-03-09T06:19:44.734Z,58.19
2019-03-09T06:20:15.924Z,57.48
2019-03-09T06:20:47.119Z,57.09
2019-03-09T06:21:19.309Z,57.14
2019-03-09T06:21:50.485Z,57.48
2019-03-09T06:22:21.693Z,57.85
2019-03-09T06:22:52.970Z,58.52
2019-03-09T06:23:25.177Z,59.03
2019-03-09T06:23:56.349Z,59.71
2019-03-09T06:24:27.601Z,60.34
2019-03-09T06:24:58.843Z,61.00
2019-03-09T06:25:30.090Z,61.63
2019-03-09T06:26:01.342Z,62.28
2019-03-09T06:26:34.087Z,62.89
2019-03-09T06:27:05.311Z,63.91
2019-03-09T06:27:36.548Z,64.85
2019-03-09T06:28:07.788Z,65.42
2019-03-09T06:28:39.007Z,65.24
2019-03-09T06:29:10.327Z,65.03
2019-03-09T06:29:41.478Z,64.56
2019-03-09T06:30:12.799Z,63.85
2019-03-09T06:30:43.975Z,63.15
2019-03-09T06:31:15.204Z,62.41
2019-03-09T06:32:32.475Z,61.89
2019-03-09T06:33:16.787Z,62.21
2019-03-09T06:33:47.951Z,61.05
2019-03-09T06:34:19.166Z,59.97
2019-03-09T06:34:50.330Z,59.43
2019-03-09T06:35:22.658Z,58.71
2019-03-09T06:36:10.360Z,57.84
2019-03-09T06:36:49.798Z,57.47
2019-03-09T06:37:22.654Z,57.63
2019-03-09T06:38:20.208Z,58.07
2019-03-09T06:38:59.750Z,58.34
2019-03-09T06:39:32.430Z,59.44
2019-03-09T06:40:07.661Z,60.40
2019-03-09T06:40:38.892Z,61.08
2019-03-09T06:41:15.810Z,61.80
2019-03-09T06:42:02.071Z,62.34
2019-03-09T06:42:38.118Z,63.13
2019-03-09T06:43:09.372Z,64.38
2019-03-09T06:43:40.696Z,64.81
2019-03-09T06:44:11.951Z,64.74
2019-03-09T06:44:43.091Z,64.23
2019-03-09T06:45:14.304Z,63.64
2019-03-09T06:45:45.454Z,62.87
2019-03-09T06:46:16.692Z,62.21
2019-03-09T06:46:49.980Z,61.43
2019-03-09T06:47:21.126Z,60.84
2019-03-09T06:47:52.339Z,60.16
2019-03-09T06:48:23.624Z,59.48
2019-03-09T06:48:54.778Z,58.65
2019-03-09T06:49:26.117Z,57.85
2019-03-09T06:49:57.287Z,57.55
2019-03-09T06:50:28.474Z,57.59
2019-03-09T06:50:59.617Z,57.74
2019-03-09T06:51:30.835Z,58.08
2019-03-09T06:52:02.492Z,58.54
2019-03-09T06:52:33.742Z,59.06
2019-03-09T06:53:04.906Z,59.77